Atlanta, Georgia
Traffic Map
Current Weather Conditions
Atlanta, Georgia
Broken Clouds
Broken Clouds
32°
Feels Like: 35°
Wind Chill: 32° Ceiling: 25000
Heat Index: 35° Visibility: 10mi
Dew Point: 21° Wind: 7mph
Humidity: 52% Direction: 310° (NW)
Pressure: 30in Gusts: 0mph
Raw Report DataKATL 281752Z 31006KT 10SM SCT040TCU SCT100 BKN250 32/21 A3000 RMK AO2 SLP148 CB DSNT N-NE-E TCU NE-SE & SW-NW SHRA DSNT N-NE-E T03220211 10328 20244 58009
Traffic Incident Summary
Active as of:
Severity:
Category:
InformationThere was an issue retrieving the traffic information for this location. Please try a different location or try again shortly.
Advertisements
Track Severe Weather on mobile